Latest Weather Forecast - Saturday 21st November 2020 (12 noon)

Forecast Period: 

 12 noon 21st November 2020 to  6 pm 21st November 2020 

Synopsis:

 Unstable conditions are across the islands

Forecast:

 Mostly cloudy, hazy and breezy; with periods of light rain   and pockets of moderate/heavy showers        

Weather Advisory:

 Be alert; in wind exposed areas, as well as areas prone to   flash-flooding and land-slides, or near rivers and streams

Winds:

 E – ENE at 35 – 50 km/h (22 – 32 mph) 

Sea Conditions:  Moderate to rough in open water; easterly swells (2.0 –   3.0 m)

Marine Warning:

 Expect rough sea-conditions, reduced visibility and   gusty winds

Upcoming Tides:
 High: **** ****
 Low:

****

06:24 pm 

Aviation WX

[Source: ADDS]
METAR
TVSA 041100Z 05007KT 8000 VCSH SCT016 BKN070 23/21 Q1015 VCSH NE, SE-S TEMPO SHRA =
TVSA 041100Z 0412/0512 09014KT 9999 SCT018 SCT036 TEMPO 0412/0420 09015G25KT SHRA BKN014 BKN032
TAF
TVSA 041100Z 0412/0512 09014KT 9999 SCT018 SCT036 TEMPO 0412/0420 09015G25KT SHRA BKN014 BKN032 =
SR / SS: 10:18 / 22:13 UTC (Sunrise Sunset 2021-03-04)